sensor_id;sensor_type;location;lat;lon;timestamp;temperature;humidity
39931;DHT22;26635;-35.248;149.138;2022-11-20T00:00:51;17.00;77.10
39931;DHT22;26635;-35.248;149.138;2022-11-20T00:03:22;16.70;75.70
39931;DHT22;26635;-35.248;149.138;2022-11-20T00:05:53;16.50;81.00
39931;DHT22;26635;-35.248;149.138;2022-11-20T00:08:24;16.10;80.30
39931;DHT22;26635;-35.248;149.138;2022-11-20T00:10:54;16.00;82.10
39931;DHT22;26635;-35.248;149.138;2022-11-20T00:13:25;16.00;83.60
39931;DHT22;26635;-35.248;149.138;2022-11-20T00:16:03;16.30;81.70
39931;DHT22;26635;-35.248;149.138;2022-11-20T00:18:35;16.60;83.70
39931;DHT22;26635;-35.248;149.138;2022-11-20T00:21:16;16.80;81.90
39931;DHT22;26635;-35.248;149.138;2022-11-20T00:23:49;17.10;78.90
39931;DHT22;26635;-35.248;149.138;2022-11-20T00:26:23;17.10;78.70
39931;DHT22;26635;-35.248;149.138;2022-11-20T00:28:58;17.30;77.90
39931;DHT22;26635;-35.248;149.138;2022-11-20T00:31:30;17.40;75.80
39931;DHT22;26635;-35.248;149.138;2022-11-20T00:34:02;17.40;77.10
39931;DHT22;26635;-35.248;149.138;2022-11-20T00:36:34;17.40;77.90
39931;DHT22;26635;-35.248;149.138;2022-11-20T00:39:05;17.50;77.40
39931;DHT22;26635;-35.248;149.138;2022-11-20T00:41:38;17.60;75.20
39931;DHT22;26635;-35.248;149.138;2022-11-20T00:44:08;17.60;77.40
39931;DHT22;26635;-35.248;149.138;2022-11-20T00:46:41;17.60;71.70
39931;DHT22;26635;-35.248;149.138;2022-11-20T00:49:12;17.80;75.10
39931;DHT22;26635;-35.248;149.138;2022-11-20T00:51:43;17.90;72.20
39931;DHT22;26635;-35.248;149.138;2022-11-20T00:54:16;17.90;72.70
39931;DHT22;26635;-35.248;149.138;2022-11-20T00:56:47;17.60;72.70
39931;DHT22;26635;-35.248;149.138;2022-11-20T00:59:19;17.40;74.20
39931;DHT22;26635;-35.248;149.138;2022-11-20T01:01:50;17.50;76.60
39931;DHT22;26635;-35.248;149.138;2022-11-20T01:04:21;17.60;78.20
39931;DHT22;26635;-35.248;149.138;2022-11-20T01:06:51;17.80;75.00
39931;DHT22;26635;-35.248;149.138;2022-11-20T01:09:22;18.10;75.60
39931;DHT22;26635;-35.248;149.138;2022-11-20T01:11:53;18.30;75.30
39931;DHT22;26635;-35.248;149.138;2022-11-20T01:14:24;18.40;74.30
39931;DHT22;26635;-35.248;149.138;2022-11-20T01:16:55;18.40;73.80
39931;DHT22;26635;-35.248;149.138;2022-11-20T01:19:27;18.20;73.90
39931;DHT22;26635;-35.248;149.138;2022-11-20T01:21:57;18.20;74.00
39931;DHT22;26635;-35.248;149.138;2022-11-20T01:24:30;18.30;73.40
39931;DHT22;26635;-35.248;149.138;2022-11-20T01:27:01;18.50;73.80
39931;DHT22;26635;-35.248;149.138;2022-11-20T01:29:32;18.60;73.90
39931;DHT22;26635;-35.248;149.138;2022-11-20T01:32:02;18.60;73.20
39931;DHT22;26635;-35.248;149.138;2022-11-20T01:34:35;18.80;74.80
39931;DHT22;26635;-35.248;149.138;2022-11-20T01:37:08;18.60;72.70
39931;DHT22;26635;-35.248;149.138;2022-11-20T01:39:39;18.60;71.90
39931;DHT22;26635;-35.248;149.138;2022-11-20T01:42:09;18.70;74.40
39931;DHT22;26635;-35.248;149.138;2022-11-20T01:45:00;18.80;73.00
39931;DHT22;26635;-35.248;149.138;2022-11-20T01:50:24;19.00;72.00
39931;DHT22;26635;-35.248;149.138;2022-11-20T01:53:01;19.10;70.50
39931;DHT22;26635;-35.248;149.138;2022-11-20T01:55:36;19.10;69.60
39931;DHT22;26635;-35.248;149.138;2022-11-20T01:58:09;19.20;70.30
39931;DHT22;26635;-35.248;149.138;2022-11-20T02:00:41;19.20;69.30
39931;DHT22;26635;-35.248;149.138;2022-11-20T02:03:17;19.10;69.10
39931;DHT22;26635;-35.248;149.138;2022-11-20T02:08:36;19.10;68.30
39931;DHT22;26635;-35.248;149.138;2022-11-20T02:11:07;19.10;68.20
39931;DHT22;26635;-35.248;149.138;2022-11-20T02:13:39;19.30;68.60
39931;DHT22;26635;-35.248;149.138;2022-11-20T02:16:26;19.40;70.90
39931;DHT22;26635;-35.248;149.138;2022-11-20T02:19:01;19.20;66.80
39931;DHT22;26635;-35.248;149.138;2022-11-20T02:21:43;18.90;64.90
39931;DHT22;26635;-35.248;149.138;2022-11-20T02:24:22;18.70;64.80
39931;DHT22;26635;-35.248;149.138;2022-11-20T02:27:00;18.70;67.40
39931;DHT22;26635;-35.248;149.138;2022-11-20T02:29:46;18.60;69.50
39931;DHT22;26635;-35.248;149.138;2022-11-20T02:32:23;18.40;69.50
39931;DHT22;26635;-35.248;149.138;2022-11-20T02:34:54;18.40;66.90
39931;DHT22;26635;-35.248;149.138;2022-11-20T02:37:32;18.40;66.80
39931;DHT22;26635;-35.248;149.138;2022-11-20T02:40:05;18.60;68.70
39931;DHT22;26635;-35.248;149.138;2022-11-20T02:42:38;18.70;69.60
39931;DHT22;26635;-35.248;149.138;2022-11-20T02:45:10;18.90;66.60
39931;DHT22;26635;-35.248;149.138;2022-11-20T02:47:43;19.00;65.90
39931;DHT22;26635;-35.248;149.138;2022-11-20T02:50:13;19.10;66.50
39931;DHT22;26635;-35.248;149.138;2022-11-20T02:52:45;19.20;66.20
39931;DHT22;26635;-35.248;149.138;2022-11-20T02:55:16;19.30;64.00
39931;DHT22;26635;-35.248;149.138;2022-11-20T02:57:47;19.30;65.80
39931;DHT22;26635;-35.248;149.138;2022-11-20T03:00:19;19.20;62.40
39931;DHT22;26635;-35.248;149.138;2022-11-20T03:02:51;19.20;64.40
39931;DHT22;26635;-35.248;149.138;2022-11-20T03:05:23;19.20;63.40
39931;DHT22;26635;-35.248;149.138;2022-11-20T03:07:54;19.00;63.20
39931;DHT22;26635;-35.248;149.138;2022-11-20T03:10:25;18.90;64.80
39931;DHT22;26635;-35.248;149.138;2022-11-20T03:12:57;18.80;65.50
39931;DHT22;26635;-35.248;149.138;2022-11-20T03:15:29;18.60;66.40
39931;DHT22;26635;-35.248;149.138;2022-11-20T03:17:59;18.30;64.50
39931;DHT22;26635;-35.248;149.138;2022-11-20T03:20:31;18.30;64.70
39931;DHT22;26635;-35.248;149.138;2022-11-20T03:23:03;18.10;64.70
39931;DHT22;26635;-35.248;149.138;2022-11-20T03:25:35;18.00;63.90
39931;DHT22;26635;-35.248;149.138;2022-11-20T03:28:05;18.00;66.20
39931;DHT22;26635;-35.248;149.138;2022-11-20T03:30:36;18.10;66.50
39931;DHT22;26635;-35.248;149.138;2022-11-20T03:33:07;18.00;66.40
39931;DHT22;26635;-35.248;149.138;2022-11-20T03:35:38;17.90;67.20
39931;DHT22;26635;-35.248;149.138;2022-11-20T03:38:09;17.80;67.90
39931;DHT22;26635;-35.248;149.138;2022-11-20T03:40:40;17.90;66.80
39931;DHT22;26635;-35.248;149.138;2022-11-20T03:43:11;18.10;68.10
39931;DHT22;26635;-35.248;149.138;2022-11-20T03:45:42;18.20;65.10
39931;DHT22;26635;-35.248;149.138;2022-11-20T03:48:13;18.30;66.70
39931;DHT22;26635;-35.248;149.138;2022-11-20T03:50:46;18.50;66.00
39931;DHT22;26635;-35.248;149.138;2022-11-20T03:53:21;18.60;66.80
39931;DHT22;26635;-35.248;149.138;2022-11-20T03:55:53;18.80;64.70
39931;DHT22;26635;-35.248;149.138;2022-11-20T03:58:24;18.90;65.70
39931;DHT22;26635;-35.248;149.138;2022-11-20T04:00:54;18.80;63.60
39931;DHT22;26635;-35.248;149.138;2022-11-20T04:03:26;18.90;64.70
39931;DHT22;26635;-35.248;149.138;2022-11-20T04:06:05;18.90;64.60
39931;DHT22;26635;-35.248;149.138;2022-11-20T04:08:36;18.80;61.80
39931;DHT22;26635;-35.248;149.138;2022-11-20T04:11:11;18.70;63.10
39931;DHT22;26635;-35.248;149.138;2022-11-20T04:13:46;18.80;63.80
39931;DHT22;26635;-35.248;149.138;2022-11-20T04:16:17;18.70;62.90
39931;DHT22;26635;-35.248;149.138;2022-11-20T04:18:54;18.70;63.60
39931;DHT22;26635;-35.248;149.138;2022-11-20T04:21:28;18.70;63.20
39931;DHT22;26635;-35.248;149.138;2022-11-20T04:24:00;18.70;62.30
39931;DHT22;26635;-35.248;149.138;2022-11-20T04:26:31;18.70;62.70
39931;DHT22;26635;-35.248;149.138;2022-11-20T04:29:02;18.60;60.10
39931;DHT22;26635;-35.248;149.138;2022-11-20T04:31:34;18.60;61.50
39931;DHT22;26635;-35.248;149.138;2022-11-20T04:34:07;18.70;62.10
39931;DHT22;26635;-35.248;149.138;2022-11-20T04:36:38;18.70;61.00
39931;DHT22;26635;-35.248;149.138;2022-11-20T04:39:13;18.60;60.50
39931;DHT22;26635;-35.248;149.138;2022-11-20T04:41:46;18.60;62.00
39931;DHT22;26635;-35.248;149.138;2022-11-20T04:44:17;18.40;61.60
39931;DHT22;26635;-35.248;149.138;2022-11-20T04:46:48;18.30;60.70
39931;DHT22;26635;-35.248;149.138;2022-11-20T04:49:19;18.30;63.20
39931;DHT22;26635;-35.248;149.138;2022-11-20T04:51:53;18.30;61.80
39931;DHT22;26635;-35.248;149.138;2022-11-20T04:54:24;18.30;64.20
39931;DHT22;26635;-35.248;149.138;2022-11-20T04:56:57;18.30;64.40
39931;DHT22;26635;-35.248;149.138;2022-11-20T04:59:30;18.30;61.80
39931;DHT22;26635;-35.248;149.138;2022-11-20T05:02:02;18.20;63.50
39931;DHT22;26635;-35.248;149.138;2022-11-20T05:04:33;18.30;64.50
39931;DHT22;26635;-35.248;149.138;2022-11-20T05:07:03;18.30;62.50
39931;DHT22;26635;-35.248;149.138;2022-11-20T05:09:34;18.20;63.10
39931;DHT22;26635;-35.248;149.138;2022-11-20T05:12:08;18.00;63.20
39931;DHT22;26635;-35.248;149.138;2022-11-20T05:14:38;17.90;63.50
39931;DHT22;26635;-35.248;149.138;2022-11-20T05:17:12;17.70;63.50
39931;DHT22;26635;-35.248;149.138;2022-11-20T05:19:44;17.60;64.40
39931;DHT22;26635;-35.248;149.138;2022-11-20T05:22:20;17.60;64.10
39931;DHT22;26635;-35.248;149.138;2022-11-20T05:24:51;17.50;64.90
39931;DHT22;26635;-35.248;149.138;2022-11-20T05:27:24;17.40;63.20
39931;DHT22;26635;-35.248;149.138;2022-11-20T05:29:55;17.40;64.00
39931;DHT22;26635;-35.248;149.138;2022-11-20T05:32:25;17.40;65.20
39931;DHT22;26635;-35.248;149.138;2022-11-20T05:34:58;17.50;67.10
39931;DHT22;26635;-35.248;149.138;2022-11-20T05:37:29;17.40;65.80
39931;DHT22;26635;-35.248;149.138;2022-11-20T05:40:00;17.40;65.40
39931;DHT22;26635;-35.248;149.138;2022-11-20T05:42:32;17.50;64.80
39931;DHT22;26635;-35.248;149.138;2022-11-20T05:45:04;17.50;64.20
39931;DHT22;26635;-35.248;149.138;2022-11-20T05:47:38;17.50;64.10
39931;DHT22;26635;-35.248;149.138;2022-11-20T05:50:10;17.40;63.60
39931;DHT22;26635;-35.248;149.138;2022-11-20T05:52:42;17.40;64.70
39931;DHT22;26635;-35.248;149.138;2022-11-20T05:55:13;17.40;65.30
39931;DHT22;26635;-35.248;149.138;2022-11-20T05:57:43;17.40;64.60
39931;DHT22;26635;-35.248;149.138;2022-11-20T06:00:16;17.50;64.10
39931;DHT22;26635;-35.248;149.138;2022-11-20T06:02:50;17.50;63.50
39931;DHT22;26635;-35.248;149.138;2022-11-20T06:05:21;17.50;64.80
39931;DHT22;26635;-35.248;149.138;2022-11-20T06:07:52;17.40;64.40
39931;DHT22;26635;-35.248;149.138;2022-11-20T06:10:25;17.40;64.80
39931;DHT22;26635;-35.248;149.138;2022-11-20T06:12:58;17.40;66.30
39931;DHT22;26635;-35.248;149.138;2022-11-20T06:15:30;17.40;64.30
39931;DHT22;26635;-35.248;149.138;2022-11-20T06:18:01;17.40;65.40
39931;DHT22;26635;-35.248;149.138;2022-11-20T06:20:32;17.40;66.10
39931;DHT22;26635;-35.248;149.138;2022-11-20T06:23:08;17.40;64.70
39931;DHT22;26635;-35.248;149.138;2022-11-20T06:25:42;17.40;64.00
39931;DHT22;26635;-35.248;149.138;2022-11-20T06:28:13;17.40;65.20
39931;DHT22;26635;-35.248;149.138;2022-11-20T06:30:47;17.20;65.10
39931;DHT22;26635;-35.248;149.138;2022-11-20T06:33:20;17.10;65.20
39931;DHT22;26635;-35.248;149.138;2022-11-20T06:35:51;17.00;65.70
39931;DHT22;26635;-35.248;149.138;2022-11-20T06:38:28;17.00;65.30
39931;DHT22;26635;-35.248;149.138;2022-11-20T06:41:00;16.90;65.30
39931;DHT22;26635;-35.248;149.138;2022-11-20T06:43:31;16.80;65.90
39931;DHT22;26635;-35.248;149.138;2022-11-20T06:46:03;16.80;65.80
39931;DHT22;26635;-35.248;149.138;2022-11-20T06:48:33;16.80;66.10
39931;DHT22;26635;-35.248;149.138;2022-11-20T06:51:07;16.70;66.30
39931;DHT22;26635;-35.248;149.138;2022-11-20T06:53:38;16.70;66.70
39931;DHT22;26635;-35.248;149.138;2022-11-20T06:56:09;16.70;66.50
39931;DHT22;26635;-35.248;149.138;2022-11-20T06:58:40;16.70;67.60
39931;DHT22;26635;-35.248;149.138;2022-11-20T07:01:14;16.70;68.10
39931;DHT22;26635;-35.248;149.138;2022-11-20T07:03:45;16.80;67.90
39931;DHT22;26635;-35.248;149.138;2022-11-20T07:06:21;16.80;67.50
39931;DHT22;26635;-35.248;149.138;2022-11-20T07:09:22;16.70;68.00
39931;DHT22;26635;-35.248;149.138;2022-11-20T07:11:53;16.60;68.40
39931;DHT22;26635;-35.248;149.138;2022-11-20T07:14:24;16.60;68.90
39931;DHT22;26635;-35.248;149.138;2022-11-20T07:16:55;16.50;67.40
39931;DHT22;26635;-35.248;149.138;2022-11-20T07:19:26;16.60;67.10
39931;DHT22;26635;-35.248;149.138;2022-11-20T07:21:58;16.50;68.70
39931;DHT22;26635;-35.248;149.138;2022-11-20T07:24:29;16.50;66.00
39931;DHT22;26635;-35.248;149.138;2022-11-20T07:27:05;16.50;68.00
39931;DHT22;26635;-35.248;149.138;2022-11-20T07:29:35;16.50;69.10
39931;DHT22;26635;-35.248;149.138;2022-11-20T07:32:06;16.40;67.80
39931;DHT22;26635;-35.248;149.138;2022-11-20T07:34:37;16.40;67.80
39931;DHT22;26635;-35.248;149.138;2022-11-20T07:37:07;16.30;67.60
39931;DHT22;26635;-35.248;149.138;2022-11-20T07:39:38;16.30;67.50
39931;DHT22;26635;-35.248;149.138;2022-11-20T07:42:09;16.20;67.90
39931;DHT22;26635;-35.248;149.138;2022-11-20T07:44:45;16.20;68.70
39931;DHT22;26635;-35.248;149.138;2022-11-20T07:47:16;16.10;68.70
39931;DHT22;26635;-35.248;149.138;2022-11-20T07:49:46;16.00;68.10
39931;DHT22;26635;-35.248;149.138;2022-11-20T07:52:18;16.00;69.70
39931;DHT22;26635;-35.248;149.138;2022-11-20T07:54:49;16.00;68.70
39931;DHT22;26635;-35.248;149.138;2022-11-20T07:57:20;15.90;70.10
39931;DHT22;26635;-35.248;149.138;2022-11-20T07:59:55;15.90;70.10
39931;DHT22;26635;-35.248;149.138;2022-11-20T08:02:26;15.90;70.80
39931;DHT22;26635;-35.248;149.138;2022-11-20T08:04:57;15.80;71.00
39931;DHT22;26635;-35.248;149.138;2022-11-20T08:07:34;15.80;70.70
39931;DHT22;26635;-35.248;149.138;2022-11-20T08:10:06;15.70;70.70
39931;DHT22;26635;-35.248;149.138;2022-11-20T08:12:48;15.60;71.60
39931;DHT22;26635;-35.248;149.138;2022-11-20T08:15:37;15.60;71.00
39931;DHT22;26635;-35.248;149.138;2022-11-20T08:18:10;15.50;71.40
39931;DHT22;26635;-35.248;149.138;2022-11-20T08:21:02;15.40;73.10
39931;DHT22;26635;-35.248;149.138;2022-11-20T08:23:33;15.40;72.50
39931;DHT22;26635;-35.248;149.138;2022-11-20T08:26:03;15.30;71.90
39931;DHT22;26635;-35.248;149.138;2022-11-20T08:28:34;15.30;73.10
39931;DHT22;26635;-35.248;149.138;2022-11-20T08:31:06;15.30;72.10
39931;DHT22;26635;-35.248;149.138;2022-11-20T08:33:39;15.20;73.20
39931;DHT22;26635;-35.248;149.138;2022-11-20T08:36:09;15.20;72.80
39931;DHT22;26635;-35.248;149.138;2022-11-20T08:38:40;15.10;74.80
39931;DHT22;26635;-35.248;149.138;2022-11-20T08:41:11;15.10;75.30
39931;DHT22;26635;-35.248;149.138;2022-11-20T08:43:57;15.00;73.40
39931;DHT22;26635;-35.248;149.138;2022-11-20T08:46:40;15.00;73.90
39931;DHT22;26635;-35.248;149.138;2022-11-20T08:49:14;14.90;73.40
39931;DHT22;26635;-35.248;149.138;2022-11-20T08:51:46;14.90;72.80
39931;DHT22;26635;-35.248;149.138;2022-11-20T08:54:21;14.90;73.40
39931;DHT22;26635;-35.248;149.138;2022-11-20T08:56:53;14.90;72.80
39931;DHT22;26635;-35.248;149.138;2022-11-20T08:59:24;14.90;73.30
39931;DHT22;26635;-35.248;149.138;2022-11-20T09:02:15;14.90;73.80
39931;DHT22;26635;-35.248;149.138;2022-11-20T09:04:45;14.80;73.00
39931;DHT22;26635;-35.248;149.138;2022-11-20T09:07:16;14.80;74.40
39931;DHT22;26635;-35.248;149.138;2022-11-20T09:09:47;14.80;74.20
39931;DHT22;26635;-35.248;149.138;2022-11-20T09:12:39;14.80;75.10
39931;DHT22;26635;-35.248;149.138;2022-11-20T09:15:10;14.70;74.90
39931;DHT22;26635;-35.248;149.138;2022-11-20T09:17:41;14.70;74.40
39931;DHT22;26635;-35.248;149.138;2022-11-20T09:20:13;14.70;75.50
39931;DHT22;26635;-35.248;149.138;2022-11-20T09:22:44;14.70;75.20
39931;DHT22;26635;-35.248;149.138;2022-11-20T09:25:17;14.70;75.50
39931;DHT22;26635;-35.248;149.138;2022-11-20T09:27:48;14.60;74.70
39931;DHT22;26635;-35.248;149.138;2022-11-20T09:30:18;14.60;75.80
39931;DHT22;26635;-35.248;149.138;2022-11-20T09:32:49;14.60;75.40
39931;DHT22;26635;-35.248;149.138;2022-11-20T09:35:19;14.50;76.10
39931;DHT22;26635;-35.248;149.138;2022-11-20T09:37:50;14.50;75.00
39931;DHT22;26635;-35.248;149.138;2022-11-20T09:40:27;14.50;76.20
39931;DHT22;26635;-35.248;149.138;2022-11-20T09:54:57;14.30;76.70
39931;DHT22;26635;-35.248;149.138;2022-11-20T09:57:42;14.30;76.40
39931;DHT22;26635;-35.248;149.138;2022-11-20T10:00:14;14.20;75.10
39931;DHT22;26635;-35.248;149.138;2022-11-20T10:03:13;14.20;75.10
39931;DHT22;26635;-35.248;149.138;2022-11-20T10:05:51;14.20;75.30
39931;DHT22;26635;-35.248;149.138;2022-11-20T10:08:31;14.10;74.80
39931;DHT22;26635;-35.248;149.138;2022-11-20T10:11:17;14.10;76.60
39931;DHT22;26635;-35.248;149.138;2022-11-20T10:14:23;14.00;75.70
39931;DHT22;26635;-35.248;149.138;2022-11-20T10:17:19;14.00;75.40
39931;DHT22;26635;-35.248;149.138;2022-11-20T10:26:21;13.90;73.70
39931;DHT22;26635;-35.248;149.138;2022-11-20T10:29:12;13.80;75.00
39931;DHT22;26635;-35.248;149.138;2022-11-20T10:32:24;13.90;75.60
39931;DHT22;26635;-35.248;149.138;2022-11-20T10:35:06;13.80;74.80
39931;DHT22;26635;-35.248;149.138;2022-11-20T10:37:45;13.80;75.20
39931;DHT22;26635;-35.248;149.138;2022-11-20T10:40:43;13.80;75.00
39931;DHT22;26635;-35.248;149.138;2022-11-20T10:43:28;13.80;75.40
39931;DHT22;26635;-35.248;149.138;2022-11-20T10:46:40;13.80;75.70
39931;DHT22;26635;-35.248;149.138;2022-11-20T10:49:18;13.80;76.20
39931;DHT22;26635;-35.248;149.138;2022-11-20T11:00:34;13.70;76.00
39931;DHT22;26635;-35.248;149.138;2022-11-20T11:03:22;13.70;77.00
39931;DHT22;26635;-35.248;149.138;2022-11-20T11:06:06;13.70;76.30
39931;DHT22;26635;-35.248;149.138;2022-11-20T11:08:39;13.70;77.40
39931;DHT22;26635;-35.248;149.138;2022-11-20T11:11:53;13.70;77.60
39931;DHT22;26635;-35.248;149.138;2022-11-20T11:14:18;13.70;77.40
39931;DHT22;26635;-35.248;149.138;2022-11-20T11:16:51;13.70;77.40
39931;DHT22;26635;-35.248;149.138;2022-11-20T11:19:23;13.70;77.50
39931;DHT22;26635;-35.248;149.138;2022-11-20T11:21:57;13.70;77.90
39931;DHT22;26635;-35.248;149.138;2022-11-20T11:24:29;13.80;77.10
39931;DHT22;26635;-35.248;149.138;2022-11-20T11:27:14;13.80;77.50
39931;DHT22;26635;-35.248;149.138;2022-11-20T11:29:47;13.90;77.30
39931;DHT22;26635;-35.248;149.138;2022-11-20T11:32:21;13.90;78.00
39931;DHT22;26635;-35.248;149.138;2022-11-20T11:35:03;13.90;77.80
39931;DHT22;26635;-35.248;149.138;2022-11-20T11:37:36;13.90;78.80
39931;DHT22;26635;-35.248;149.138;2022-11-20T11:40:11;13.80;79.00
39931;DHT22;26635;-35.248;149.138;2022-11-20T11:43:02;13.80;78.00
39931;DHT22;26635;-35.248;149.138;2022-11-20T11:45:36;13.80;80.10
39931;DHT22;26635;-35.248;149.138;2022-11-20T11:48:09;13.80;80.20
39931;DHT22;26635;-35.248;149.138;2022-11-20T11:50:49;13.70;80.70
39931;DHT22;26635;-35.248;149.138;2022-11-20T11:53:24;13.70;80.90
39931;DHT22;26635;-35.248;149.138;2022-11-20T11:56:07;13.70;79.80
39931;DHT22;26635;-35.248;149.138;2022-11-20T11:58:52;13.70;82.10
39931;DHT22;26635;-35.248;149.138;2022-11-20T12:01:43;13.70;81.10
39931;DHT22;26635;-35.248;149.138;2022-11-20T12:07:24;13.60;81.60
39931;DHT22;26635;-35.248;149.138;2022-11-20T12:13:04;13.50;84.20
39931;DHT22;26635;-35.248;149.138;2022-11-20T12:15:44;13.40;82.70
39931;DHT22;26635;-35.248;149.138;2022-11-20T12:18:18;13.40;83.50
39931;DHT22;26635;-35.248;149.138;2022-11-20T12:29:54;13.20;84.20
39931;DHT22;26635;-35.248;149.138;2022-11-20T12:43:57;12.80;86.70
39931;DHT22;26635;-35.248;149.138;2022-11-20T13:01:04;12.60;87.00
39931;DHT22;26635;-35.248;149.138;2022-11-20T13:04:07;12.60;88.00
39931;DHT22;26635;-35.248;149.138;2022-11-20T13:06:41;12.50;87.00
39931;DHT22;26635;-35.248;149.138;2022-11-20T13:09:15;12.50;87.50
39931;DHT22;26635;-35.248;149.138;2022-11-20T13:17:20;12.50;86.60
39931;DHT22;26635;-35.248;149.138;2022-11-20T13:19:55;12.50;87.20
39931;DHT22;26635;-35.248;149.138;2022-11-20T13:22:45;12.50;87.10
39931;DHT22;26635;-35.248;149.138;2022-11-20T13:25:27;12.50;86.70
39931;DHT22;26635;-35.248;149.138;2022-11-20T13:29:02;12.60;86.30
39931;DHT22;26635;-35.248;149.138;2022-11-20T13:30:57;12.60;86.80
39931;DHT22;26635;-35.248;149.138;2022-11-20T13:33:35;12.70;87.10
39931;DHT22;26635;-35.248;149.138;2022-11-20T13:36:21;12.70;86.50
39931;DHT22;26635;-35.248;149.138;2022-11-20T13:38:54;12.80;85.60
39931;DHT22;26635;-35.248;149.138;2022-11-20T13:41:36;12.80;85.20
39931;DHT22;26635;-35.248;149.138;2022-11-20T13:44:13;12.90;84.30
39931;DHT22;26635;-35.248;149.138;2022-11-20T13:46:46;12.90;84.30
39931;DHT22;26635;-35.248;149.138;2022-11-20T13:55:05;12.80;84.50
39931;DHT22;26635;-35.248;149.138;2022-11-20T13:57:58;12.80;84.70
39931;DHT22;26635;-35.248;149.138;2022-11-20T14:00:32;12.80;84.00
39931;DHT22;26635;-35.248;149.138;2022-11-20T14:03:19;12.90;84.50
39931;DHT22;26635;-35.248;149.138;2022-11-20T14:06:43;12.90;84.30
39931;DHT22;26635;-35.248;149.138;2022-11-20T14:09:34;12.90;84.40
39931;DHT22;26635;-35.248;149.138;2022-11-20T14:12:20;12.90;83.60
39931;DHT22;26635;-35.248;149.138;2022-11-20T14:14:53;13.00;82.60
39931;DHT22;26635;-35.248;149.138;2022-11-20T14:17:34;13.00;82.70
39931;DHT22;26635;-35.248;149.138;2022-11-20T14:20:07;13.00;82.50
39931;DHT22;26635;-35.248;149.138;2022-11-20T14:22:49;13.00;81.30
39931;DHT22;26635;-35.248;149.138;2022-11-20T14:25:25;13.00;82.40
39931;DHT22;26635;-35.248;149.138;2022-11-20T14:28:03;13.10;82.80
39931;DHT22;26635;-35.248;149.138;2022-11-20T14:33:13;13.10;85.00
39931;DHT22;26635;-35.248;149.138;2022-11-20T14:35:55;13.10;86.40
39931;DHT22;26635;-35.248;149.138;2022-11-20T14:38:31;13.00;87.60
39931;DHT22;26635;-35.248;149.138;2022-11-20T14:41:08;12.90;87.10
39931;DHT22;26635;-35.248;149.138;2022-11-20T14:43:40;12.80;88.60
39931;DHT22;26635;-35.248;149.138;2022-11-20T14:46:18;12.80;90.70
39931;DHT22;26635;-35.248;149.138;2022-11-20T14:48:56;12.80;91.00
39931;DHT22;26635;-35.248;149.138;2022-11-20T14:57:03;12.50;92.20
39931;DHT22;26635;-35.248;149.138;2022-11-20T14:59:34;12.40;91.70
39931;DHT22;26635;-35.248;149.138;2022-11-20T15:02:18;12.30;92.10
39931;DHT22;26635;-35.248;149.138;2022-11-20T15:04:59;12.20;92.30
39931;DHT22;26635;-35.248;149.138;2022-11-20T15:07:36;12.10;93.00
39931;DHT22;26635;-35.248;149.138;2022-11-20T15:10:13;12.10;92.70
39931;DHT22;26635;-35.248;149.138;2022-11-20T15:12:52;12.10;92.70
39931;DHT22;26635;-35.248;149.138;2022-11-20T15:18:00;12.00;92.90
39931;DHT22;26635;-35.248;149.138;2022-11-20T15:20:32;12.00;92.70
39931;DHT22;26635;-35.248;149.138;2022-11-20T15:23:10;11.90;92.30
39931;DHT22;26635;-35.248;149.138;2022-11-20T15:25:42;11.90;92.30
39931;DHT22;26635;-35.248;149.138;2022-11-20T15:31:00;11.90;92.70
39931;DHT22;26635;-35.248;149.138;2022-11-20T15:33:33;11.80;92.10
39931;DHT22;26635;-35.248;149.138;2022-11-20T15:36:05;11.80;92.60
39931;DHT22;26635;-35.248;149.138;2022-11-20T15:38:36;11.80;92.50
39931;DHT22;26635;-35.248;149.138;2022-11-20T15:41:07;11.80;93.00
39931;DHT22;26635;-35.248;149.138;2022-11-20T15:43:40;11.70;93.30
39931;DHT22;26635;-35.248;149.138;2022-11-20T15:46:13;11.70;93.30
39931;DHT22;26635;-35.248;149.138;2022-11-20T15:48:45;11.60;93.00
39931;DHT22;26635;-35.248;149.138;2022-11-20T15:53:56;11.50;93.60
39931;DHT22;26635;-35.248;149.138;2022-11-20T15:56:27;11.50;93.60
39931;DHT22;26635;-35.248;149.138;2022-11-20T15:58:58;11.40;94.00
39931;DHT22;26635;-35.248;149.138;2022-11-20T16:01:29;11.50;93.80
39931;DHT22;26635;-35.248;149.138;2022-11-20T16:04:01;11.50;93.60
39931;DHT22;26635;-35.248;149.138;2022-11-20T16:06:31;11.50;93.30
39931;DHT22;26635;-35.248;149.138;2022-11-20T16:09:02;11.50;93.30
39931;DHT22;26635;-35.248;149.138;2022-11-20T16:11:34;11.50;93.60
39931;DHT22;26635;-35.248;149.138;2022-11-20T16:14:10;11.50;93.70
39931;DHT22;26635;-35.248;149.138;2022-11-20T16:16:59;11.40;94.10
39931;DHT22;26635;-35.248;149.138;2022-11-20T16:19:32;11.40;94.70
39931;DHT22;26635;-35.248;149.138;2022-11-20T16:22:03;11.40;94.20
39931;DHT22;26635;-35.248;149.138;2022-11-20T16:24:37;11.40;94.50
39931;DHT22;26635;-35.248;149.138;2022-11-20T16:27:09;11.40;94.50
39931;DHT22;26635;-35.248;149.138;2022-11-20T16:29:41;11.50;94.30
39931;DHT22;26635;-35.248;149.138;2022-11-20T16:32:12;11.40;94.60
39931;DHT22;26635;-35.248;149.138;2022-11-20T16:34:42;11.40;94.50
39931;DHT22;26635;-35.248;149.138;2022-11-20T16:37:14;11.40;94.70
39931;DHT22;26635;-35.248;149.138;2022-11-20T16:39:45;11.30;94.90
39931;DHT22;26635;-35.248;149.138;2022-11-20T16:42:15;11.40;95.00
39931;DHT22;26635;-35.248;149.138;2022-11-20T16:44:46;11.40;95.00
39931;DHT22;26635;-35.248;149.138;2022-11-20T16:47:16;11.30;94.70
39931;DHT22;26635;-35.248;149.138;2022-11-20T16:49:47;11.30;94.80
39931;DHT22;26635;-35.248;149.138;2022-11-20T16:52:17;11.30;95.10
39931;DHT22;26635;-35.248;149.138;2022-11-20T16:54:48;11.30;95.20
39931;DHT22;26635;-35.248;149.138;2022-11-20T16:57:18;11.30;94.70
39931;DHT22;26635;-35.248;149.138;2022-11-20T16:59:49;11.30;95.40
39931;DHT22;26635;-35.248;149.138;2022-11-20T17:02:19;11.20;95.10
39931;DHT22;26635;-35.248;149.138;2022-11-20T17:04:49;11.30;95.30
39931;DHT22;26635;-35.248;149.138;2022-11-20T17:07:19;11.30;95.10
39931;DHT22;26635;-35.248;149.138;2022-11-20T17:09:50;11.30;95.40
39931;DHT22;26635;-35.248;149.138;2022-11-20T17:12:20;11.30;95.20
39931;DHT22;26635;-35.248;149.138;2022-11-20T17:14:51;11.20;95.30